createdAt,value
2023-04-06T00:02:12.034Z,5.07
2023-04-06T00:04:46.272Z,5.00
2023-04-06T00:07:18.950Z,4.92
2023-04-06T00:09:51.954Z,4.84
2023-04-06T00:12:24.625Z,4.80
2023-04-06T00:14:57.383Z,4.74
2023-04-06T00:17:30.155Z,4.68
2023-04-06T00:20:04.450Z,4.61
2023-04-06T00:22:37.123Z,4.57
2023-04-06T00:25:11.228Z,4.53
2023-04-06T00:27:43.965Z,4.46
2023-04-06T00:30:17.009Z,4.41
2023-04-06T00:32:49.741Z,4.36
2023-04-06T00:35:23.830Z,4.33
2023-04-06T00:37:56.520Z,4.29
2023-04-06T00:40:29.660Z,4.26
2023-04-06T00:43:02.342Z,4.22
2023-04-06T00:45:35.254Z,4.18
2023-04-06T00:48:08.210Z,4.15
2023-04-06T00:50:42.322Z,4.09
2023-04-06T00:53:14.925Z,4.07
2023-04-06T00:55:47.733Z,4.04
2023-04-06T00:58:20.456Z,4.01
2023-04-06T01:00:53.150Z,3.98
2023-04-06T01:03:26.138Z,3.94
2023-04-06T01:06:00.275Z,3.91
2023-04-06T01:08:32.993Z,3.89
2023-04-06T01:11:06.123Z,3.87
2023-04-06T01:13:39.434Z,3.82
2023-04-06T01:16:12.610Z,3.78
2023-04-06T01:18:45.480Z,3.76
2023-04-06T01:21:19.695Z,3.73
2023-04-06T01:23:53.824Z,3.68
2023-04-06T01:26:27.238Z,3.65
2023-04-06T01:28:59.915Z,3.63
2023-04-06T01:31:32.674Z,3.59
2023-04-06T01:34:05.764Z,3.57
2023-04-06T01:36:38.550Z,3.53
2023-04-06T01:39:12.551Z,3.49
2023-04-06T01:41:45.318Z,3.47
2023-04-06T01:44:19.219Z,3.45
2023-04-06T01:46:51.923Z,3.39
2023-04-06T01:49:24.808Z,3.36
2023-04-06T01:51:57.507Z,3.33
2023-04-06T01:54:31.648Z,3.31
2023-04-06T01:57:04.306Z,3.27
2023-04-06T01:59:36.981Z,3.25
2023-04-06T02:02:09.804Z,3.20
2023-04-06T02:04:42.475Z,3.18
2023-04-06T02:07:15.115Z,3.15
2023-04-06T02:09:49.191Z,3.12
2023-04-06T02:12:21.933Z,3.11
2023-04-06T02:14:54.554Z,3.07
2023-04-06T02:17:27.229Z,3.04
2023-04-06T02:19:59.922Z,3.02
2023-04-06T02:22:32.898Z,3.00
2023-04-06T02:25:07.512Z,2.97
2023-04-06T02:27:40.162Z,2.96
2023-04-06T02:30:13.067Z,2.93
2023-04-06T02:32:45.832Z,2.92
2023-04-06T02:35:18.483Z,2.88
2023-04-06T02:37:51.341Z,2.87
2023-04-06T02:40:25.633Z,2.85
2023-04-06T02:42:58.347Z,2.82
2023-04-06T02:45:31.149Z,2.80
2023-04-06T02:48:03.890Z,2.77
2023-04-06T02:50:36.648Z,2.76
2023-04-06T02:53:09.337Z,2.74
2023-04-06T02:55:43.369Z,2.72
2023-04-06T02:58:16.434Z,2.71
2023-04-06T03:00:49.082Z,2.69
2023-04-06T03:03:22.536Z,2.70
2023-04-06T03:05:57.285Z,2.66
2023-04-06T03:08:29.991Z,2.65
2023-04-06T03:11:04.483Z,2.63
2023-04-06T03:13:39.746Z,2.62
2023-04-06T03:16:12.532Z,2.60
2023-04-06T03:18:46.258Z,2.57
2023-04-06T03:21:20.380Z,2.57
2023-04-06T03:23:53.379Z,2.55
2023-04-06T03:26:27.434Z,2.53
2023-04-06T03:29:00.129Z,2.52
2023-04-06T03:31:32.962Z,2.50
2023-04-06T03:34:05.733Z,2.48
2023-04-06T03:36:38.446Z,2.48
2023-04-06T03:39:11.242Z,2.45
2023-04-06T03:41:45.699Z,2.44
2023-04-06T03:44:18.913Z,2.43
2023-04-06T03:46:51.635Z,2.40
2023-04-06T03:49:24.346Z,2.38
2023-04-06T03:51:57.941Z,2.38
2023-04-06T03:54:30.663Z,2.36
2023-04-06T03:57:04.829Z,2.34
2023-04-06T03:59:37.662Z,2.32
2023-04-06T04:02:10.486Z,2.31
2023-04-06T04:04:43.437Z,2.29
2023-04-06T04:07:16.186Z,2.27
2023-04-06T04:09:49.388Z,2.26
2023-04-06T04:12:23.496Z,2.25
2023-04-06T04:14:56.223Z,2.22
2023-04-06T04:17:28.982Z,2.22
2023-04-06T04:20:01.670Z,2.19
2023-04-06T04:22:34.741Z,2.17
2023-04-06T04:25:07.845Z,2.16
2023-04-06T04:27:41.918Z,2.15
2023-04-06T04:30:14.763Z,2.12
2023-04-06T04:32:47.477Z,2.11
2023-04-06T04:35:20.199Z,2.08
2023-04-06T04:37:53.163Z,2.08
2023-04-06T04:40:25.819Z,2.04
2023-04-06T04:42:59.812Z,2.04
2023-04-06T04:45:32.735Z,2.02
2023-04-06T04:48:05.994Z,2.00
2023-04-06T04:50:38.794Z,1.99
2023-04-06T04:53:11.457Z,1.97
2023-04-06T04:55:44.496Z,1.95
2023-04-06T04:58:20.608Z,1.95
2023-04-06T05:00:53.347Z,1.93
2023-04-06T05:03:27.224Z,1.94
2023-04-06T05:06:00.044Z,1.95
2023-04-06T05:08:32.778Z,1.95
2023-04-06T05:11:05.508Z,1.93
2023-04-06T05:13:39.580Z,1.94
2023-04-06T05:16:12.409Z,1.94
2023-04-06T05:18:45.186Z,1.97
2023-04-06T05:21:17.928Z,1.99
2023-04-06T05:23:50.673Z,2.00
2023-04-06T05:26:23.462Z,2.01
2023-04-06T05:28:57.543Z,2.03
2023-04-06T05:31:31.248Z,2.06
2023-04-06T05:34:04.035Z,2.10
2023-04-06T05:36:37.054Z,2.13
2023-04-06T05:39:10.052Z,2.16
2023-04-06T05:41:43.055Z,2.19
2023-04-06T05:44:17.228Z,2.23
2023-04-06T05:46:50.074Z,2.31
2023-04-06T05:49:22.984Z,2.39
2023-04-06T05:51:55.912Z,2.50
2023-04-06T05:54:28.709Z,2.62
2023-04-06T05:57:01.401Z,2.77
2023-04-06T05:59:35.728Z,2.90
2023-04-06T06:02:08.420Z,3.02
2023-04-06T06:04:41.167Z,3.18
2023-04-06T06:07:13.858Z,3.31
2023-04-06T06:09:46.564Z,3.45
2023-04-06T06:12:19.304Z,3.59
2023-04-06T06:14:53.339Z,3.75
2023-04-06T06:17:26.158Z,3.90
2023-04-06T06:19:58.789Z,4.04
2023-04-06T06:22:31.761Z,4.17
2023-04-06T06:25:04.803Z,4.31
2023-04-06T06:27:37.627Z,4.46
2023-04-06T06:30:13.043Z,4.63
2023-04-06T06:32:45.797Z,4.76
2023-04-06T06:35:18.769Z,4.90
2023-04-06T06:37:51.567Z,5.07
2023-04-06T06:40:27.152Z,5.20
2023-04-06T06:43:00.354Z,5.36
2023-04-06T06:45:34.775Z,5.51
2023-04-06T06:48:07.475Z,5.68
2023-04-06T06:50:40.137Z,5.83
2023-04-06T06:53:13.265Z,6.00
2023-04-06T06:55:46.336Z,6.14
2023-04-06T06:58:20.502Z,6.31
2023-04-06T07:00:57.922Z,6.46
2023-04-06T07:03:31.035Z,6.60
2023-04-06T07:06:03.708Z,6.74
2023-04-06T07:08:36.474Z,6.89
2023-04-06T07:11:09.148Z,7.02
2023-04-06T07:13:41.830Z,7.20
2023-04-06T07:16:15.965Z,7.33
2023-04-06T07:18:48.657Z,7.47
2023-04-06T07:21:21.386Z,7.62
2023-04-06T07:23:54.442Z,7.76
2023-04-06T07:26:27.173Z,7.89
2023-04-06T07:28:59.898Z,8.05
2023-04-06T07:31:34.536Z,8.18
2023-04-06T07:34:07.474Z,8.31
2023-04-06T07:36:40.333Z,8.45
2023-04-06T07:39:12.960Z,8.61
2023-04-06T07:41:45.630Z,8.74
2023-04-06T07:44:18.309Z,8.87
2023-04-06T07:46:52.363Z,9.01
2023-04-06T07:49:25.122Z,9.13
2023-04-06T07:51:58.293Z,9.28
2023-04-06T07:54:31.022Z,9.40
2023-04-06T07:57:03.968Z,9.54
2023-04-06T07:59:36.838Z,9.69
2023-04-06T08:02:11.152Z,9.84
2023-04-06T08:04:45.722Z,9.99
2023-04-06T08:07:18.656Z,10.10
2023-04-06T08:09:51.429Z,10.26
2023-04-06T08:12:24.067Z,10.38
2023-04-06T08:14:58.065Z,10.51
2023-04-06T08:17:33.534Z,10.64
2023-04-06T08:20:06.528Z,10.77
2023-04-06T08:22:39.144Z,10.88
2023-04-06T08:25:11.867Z,11.02
2023-04-06T08:27:44.562Z,11.14
2023-04-06T08:30:17.408Z,11.24
2023-04-06T08:32:51.706Z,11.36
2023-04-06T08:35:24.503Z,11.49
2023-04-06T08:37:57.173Z,11.61
2023-04-06T08:40:30.177Z,11.73
2023-04-06T08:43:04.870Z,11.87
2023-04-06T08:45:37.744Z,11.99
2023-04-06T08:48:13.757Z,12.15
2023-04-06T08:50:46.697Z,12.27
2023-04-06T08:53:21.030Z,12.40
2023-04-06T08:55:54.796Z,12.52
2023-04-06T08:58:37.539Z,12.63
2023-04-06T09:01:13.836Z,12.77
2023-04-06T09:03:48.961Z,12.89
2023-04-06T09:06:21.755Z,13.00
2023-04-06T09:08:55.804Z,13.09
2023-04-06T09:11:28.618Z,13.18
2023-04-06T09:14:01.270Z,13.28
2023-04-06T09:16:40.995Z,13.36
2023-04-06T09:19:15.164Z,13.43
2023-04-06T09:21:48.005Z,13.49
2023-04-06T09:24:26.365Z,13.55
2023-04-06T09:26:59.386Z,13.63
2023-04-06T09:29:33.041Z,13.68
2023-04-06T09:32:06.501Z,13.73
2023-04-06T09:34:41.030Z,13.76
2023-04-06T09:37:17.096Z,13.80
2023-04-06T09:39:52.567Z,13.84
2023-04-06T09:42:26.537Z,13.87
2023-04-06T09:44:59.427Z,13.94
2023-04-06T09:47:34.351Z,13.97
2023-04-06T09:50:09.774Z,14.02
2023-04-06T09:52:44.721Z,14.07
2023-04-06T09:55:22.570Z,14.10
2023-04-06T09:57:58.155Z,14.15
2023-04-06T10:00:32.224Z,14.18
2023-04-06T10:03:09.790Z,14.24
2023-04-06T10:05:48.618Z,14.27
2023-04-06T10:08:23.339Z,14.30
2023-04-06T10:10:56.077Z,14.34
2023-04-06T10:13:29.057Z,14.36
2023-04-06T10:16:02.479Z,14.37
2023-04-06T10:18:35.565Z,14.42
2023-04-06T10:21:14.959Z,14.42
2023-04-06T10:23:50.109Z,14.43
2023-04-06T10:26:23.282Z,14.44
2023-04-06T10:28:57.016Z,14.46
2023-04-06T10:31:30.500Z,14.48
2023-04-06T10:34:03.974Z,14.49
2023-04-06T10:36:38.910Z,14.51
2023-04-06T10:39:11.604Z,14.51
2023-04-06T10:41:45.797Z,14.54
2023-04-06T10:44:22.810Z,14.55
2023-04-06T10:46:56.219Z,14.58
2023-04-06T10:49:28.881Z,14.59
2023-04-06T10:52:03.040Z,14.62
2023-04-06T10:54:36.595Z,14.65
2023-04-06T10:57:09.444Z,14.68
2023-04-06T10:59:44.463Z,14.72
2023-04-06T11:02:23.837Z,14.77
2023-04-06T11:04:57.865Z,14.80
2023-04-06T11:07:32.401Z,14.84
2023-04-06T11:10:16.514Z,14.89
2023-04-06T11:12:53.879Z,14.91
2023-04-06T11:15:26.605Z,14.94
2023-04-06T11:17:59.269Z,14.98
2023-04-06T11:20:31.986Z,15.00
2023-04-06T11:23:06.070Z,15.00
2023-04-06T11:25:39.280Z,15.00
2023-04-06T11:28:12.810Z,15.01
2023-04-06T11:30:45.632Z,15.00
2023-04-06T11:33:22.658Z,14.97
2023-04-06T11:35:59.183Z,14.97
2023-04-06T11:38:33.454Z,14.97
2023-04-06T11:41:06.468Z,14.96
2023-04-06T11:43:39.104Z,14.96
2023-04-06T11:46:14.147Z,14.98
2023-04-06T11:48:46.915Z,15.00
2023-04-06T11:51:24.204Z,15.03
2023-04-06T11:53:58.273Z,15.08
2023-04-06T11:56:31.908Z,15.12
2023-04-06T11:59:04.949Z,15.21
2023-04-06T12:01:46.712Z,15.27
2023-04-06T12:04:19.398Z,15.35
2023-04-06T12:06:52.496Z,15.43
2023-04-06T12:09:26.559Z,15.53
2023-04-06T12:11:59.615Z,15.61
2023-04-06T12:14:32.325Z,15.68
2023-04-06T12:17:05.471Z,15.76
2023-04-06T12:19:38.102Z,15.82
2023-04-06T12:22:11.161Z,15.89
2023-04-06T12:24:45.181Z,15.94
2023-04-06T12:27:18.093Z,15.96
2023-04-06T12:29:50.712Z,16.01
2023-04-06T12:32:23.561Z,16.02
2023-04-06T12:34:56.363Z,16.05
2023-04-06T12:37:29.086Z,16.09
2023-04-06T12:40:04.385Z,16.09
2023-04-06T12:42:37.090Z,16.13
2023-04-06T12:45:10.084Z,16.14
2023-04-06T12:47:42.839Z,16.17
2023-04-06T12:50:15.590Z,16.20
2023-04-06T12:52:49.442Z,16.23
2023-04-06T12:55:23.750Z,16.27
2023-04-06T12:57:56.625Z,16.31
2023-04-06T13:00:29.474Z,16.33
2023-04-06T13:03:02.261Z,16.37
2023-04-06T13:05:34.896Z,16.41
2023-04-06T13:08:07.547Z,16.47
2023-04-06T13:10:45.164Z,16.52
2023-04-06T13:13:17.889Z,16.61
2023-04-06T13:15:50.560Z,16.68
2023-04-06T13:18:24.015Z,16.76
2023-04-06T13:20:57.527Z,16.88
2023-04-06T13:23:30.686Z,16.99
2023-04-06T13:26:05.491Z,17.10
2023-04-06T13:28:40.039Z,17.23
2023-04-06T13:31:12.954Z,17.33
2023-04-06T13:33:45.945Z,17.45
2023-04-06T13:36:18.667Z,17.57
2023-04-06T13:38:51.520Z,17.65
2023-04-06T13:41:27.433Z,17.75
2023-04-06T13:44:00.164Z,17.84
2023-04-06T13:46:33.215Z,17.94
2023-04-06T13:49:06.822Z,18.03
2023-04-06T13:51:39.479Z,18.13
2023-04-06T13:54:12.464Z,18.23
2023-04-06T13:56:46.590Z,18.32
2023-04-06T13:59:19.299Z,18.42
2023-04-06T14:01:52.044Z,18.54
2023-04-06T14:04:24.872Z,18.62
2023-04-06T14:06:57.715Z,18.70
2023-04-06T14:09:30.938Z,18.78
2023-04-06T14:12:05.069Z,18.83
2023-04-06T14:14:37.699Z,18.87
2023-04-06T14:17:10.408Z,18.86
2023-04-06T14:19:44.127Z,18.85
2023-04-06T14:22:16.764Z,18.82
2023-04-06T14:24:49.466Z,18.75
2023-04-06T14:27:23.731Z,18.68
2023-04-06T14:29:57.294Z,18.60
2023-04-06T14:32:30.170Z,18.53
2023-04-06T14:35:04.100Z,18.46
2023-04-06T14:37:37.684Z,18.40
2023-04-06T14:40:10.695Z,18.33
2023-04-06T14:42:44.802Z,18.29
2023-04-06T14:45:18.418Z,18.22
2023-04-06T14:47:51.616Z,18.17
2023-04-06T14:50:24.402Z,18.11
2023-04-06T14:52:57.263Z,18.05
2023-04-06T14:55:29.965Z,17.99
2023-04-06T14:58:04.001Z,17.94
2023-04-06T15:00:36.756Z,17.88
2023-04-06T15:03:09.661Z,17.83
2023-04-06T15:05:42.567Z,17.77
2023-04-06T15:08:16.134Z,17.69
2023-04-06T15:10:49.152Z,17.61
2023-04-06T15:13:23.190Z,17.56
2023-04-06T15:15:56.334Z,17.49
2023-04-06T15:18:29.006Z,17.42
2023-04-06T15:21:01.734Z,17.37
2023-04-06T15:23:35.357Z,17.31
2023-04-06T15:26:08.374Z,17.26
2023-04-06T15:28:42.414Z,17.22
2023-04-06T15:31:20.716Z,17.19
2023-04-06T15:34:01.467Z,17.14
2023-04-06T15:36:34.197Z,17.10
2023-04-06T15:39:09.756Z,17.08
2023-04-06T15:41:42.751Z,17.07
2023-04-06T15:44:16.770Z,17.06
2023-04-06T15:46:49.514Z,17.06
2023-04-06T15:49:22.297Z,17.05
2023-04-06T15:51:54.956Z,17.05
2023-04-06T15:54:27.670Z,17.05
2023-04-06T15:57:00.468Z,17.06
2023-04-06T15:59:34.541Z,17.06
2023-04-06T16:02:07.485Z,17.05
2023-04-06T16:04:40.334Z,17.05
2023-04-06T16:07:13.002Z,17.07
2023-04-06T16:09:45.690Z,17.04
2023-04-06T16:12:18.345Z,17.05
2023-04-06T16:14:52.530Z,17.04
2023-04-06T16:17:25.318Z,17.02
2023-04-06T16:19:58.419Z,17.00
2023-04-06T16:22:31.110Z,16.98
2023-04-06T16:25:04.013Z,16.96
2023-04-06T16:27:37.834Z,16.92
2023-04-06T16:30:12.963Z,16.90
2023-04-06T16:32:47.550Z,16.87
2023-04-06T16:35:20.657Z,16.82
2023-04-06T16:37:53.331Z,16.78
2023-04-06T16:40:26.169Z,16.74
2023-04-06T16:42:59.549Z,16.68
2023-04-06T16:45:33.639Z,16.64
2023-04-06T16:48:06.712Z,16.57
2023-04-06T16:50:39.414Z,16.53
2023-04-06T16:53:12.228Z,16.48
2023-04-06T16:55:45.459Z,16.41
2023-04-06T16:58:18.135Z,16.35
2023-04-06T17:00:52.223Z,16.28
2023-04-06T17:03:25.335Z,16.23
2023-04-06T17:05:58.842Z,16.18
2023-04-06T17:08:31.507Z,16.11
2023-04-06T17:11:04.961Z,16.05
2023-04-06T17:13:38.089Z,15.99
2023-04-06T17:16:12.404Z,15.93
2023-04-06T17:18:45.019Z,15.88
2023-04-06T17:21:20.587Z,15.81
2023-04-06T17:23:53.319Z,15.75
2023-04-06T17:26:26.165Z,15.66
2023-04-06T17:28:58.821Z,15.60
2023-04-06T17:31:32.952Z,15.54
2023-04-06T17:34:05.700Z,15.48
2023-04-06T17:36:38.363Z,15.40
2023-04-06T17:39:11.952Z,15.32
2023-04-06T17:41:44.781Z,15.26
2023-04-06T17:44:17.638Z,15.19
2023-04-06T17:46:51.898Z,15.13
2023-04-06T17:49:24.690Z,15.05
2023-04-06T17:51:57.382Z,15.00
2023-04-06T17:54:30.048Z,14.96
2023-04-06T17:57:02.796Z,14.92
2023-04-06T17:59:35.537Z,14.87
2023-04-06T18:02:09.775Z,14.82
2023-04-06T18:04:44.234Z,14.78
2023-04-06T18:07:17.074Z,14.74
2023-04-06T18:09:49.738Z,14.70
2023-04-06T18:12:22.432Z,14.68
2023-04-06T18:14:55.089Z,14.63
2023-04-06T18:17:29.169Z,14.59
2023-04-06T18:20:01.837Z,14.54
2023-04-06T18:22:36.700Z,14.50
2023-04-06T18:25:09.875Z,14.45
2023-04-06T18:27:42.735Z,14.42
2023-04-06T18:30:17.667Z,14.35
2023-04-06T18:32:52.840Z,14.35
2023-04-06T18:35:25.591Z,14.30
2023-04-06T18:37:58.301Z,14.29
2023-04-06T18:40:35.377Z,14.25
2023-04-06T18:43:08.975Z,14.21
2023-04-06T18:45:43.430Z,14.20
2023-04-06T18:48:17.541Z,14.17
2023-04-06T18:50:53.868Z,14.16
2023-04-06T18:53:26.509Z,14.13
2023-04-06T18:55:59.229Z,14.09
2023-04-06T18:58:31.879Z,14.06
2023-04-06T19:01:04.911Z,14.04
2023-04-06T19:03:40.271Z,14.01
2023-04-06T19:06:13.386Z,13.97
2023-04-06T19:08:46.039Z,13.94
2023-04-06T19:11:20.084Z,13.91
2023-04-06T19:13:54.317Z,13.89
2023-04-06T19:16:27.574Z,13.87
2023-04-06T19:19:01.721Z,13.83
2023-04-06T19:21:34.397Z,13.81
2023-04-06T19:24:07.489Z,13.78
2023-04-06T19:26:40.270Z,13.74
2023-04-06T19:29:12.918Z,13.72
2023-04-06T19:31:45.752Z,13.71
2023-04-06T19:34:19.864Z,13.68
2023-04-06T19:36:52.570Z,13.66
2023-04-06T19:39:26.515Z,13.64
2023-04-06T19:41:59.326Z,13.60
2023-04-06T19:44:31.974Z,13.59
2023-04-06T19:47:04.628Z,13.57
2023-04-06T19:49:40.736Z,13.55
2023-04-06T19:52:13.558Z,13.53
2023-04-06T19:54:47.059Z,13.51
2023-04-06T19:57:19.867Z,13.51
2023-04-06T19:59:52.644Z,13.49
2023-04-06T20:02:25.572Z,13.47
2023-04-06T20:04:59.824Z,13.44
2023-04-06T20:07:32.603Z,13.44
2023-04-06T20:10:05.950Z,13.41
2023-04-06T20:12:39.382Z,13.42
2023-04-06T20:15:12.517Z,13.40
2023-04-06T20:17:45.354Z,13.38
2023-04-06T20:20:19.574Z,13.38
2023-04-06T20:22:52.555Z,13.36
2023-04-06T20:25:25.637Z,13.35
2023-04-06T20:27:58.315Z,13.34
2023-04-06T20:30:31.034Z,13.34
2023-04-06T20:33:03.723Z,13.32
2023-04-06T20:35:38.138Z,13.31
2023-04-06T20:38:10.866Z,13.30
2023-04-06T20:40:45.350Z,13.30
2023-04-06T20:43:18.528Z,13.29
2023-04-06T20:45:51.199Z,13.27
2023-04-06T20:48:23.969Z,13.28
2023-04-06T20:50:58.557Z,13.27
2023-04-06T20:53:31.879Z,13.25
2023-04-06T20:56:04.582Z,13.25
2023-04-06T20:58:37.278Z,13.25
2023-04-06T21:01:13.316Z,13.23
2023-04-06T21:03:46.304Z,13.21
2023-04-06T21:06:21.014Z,13.20
2023-04-06T21:08:53.695Z,13.18
2023-04-06T21:11:27.137Z,13.17
2023-04-06T21:13:59.985Z,13.17
2023-04-06T21:16:32.696Z,13.16
2023-04-06T21:19:05.406Z,13.12
2023-04-06T21:21:39.404Z,13.11
2023-04-06T21:24:12.204Z,13.09
2023-04-06T21:26:44.806Z,13.05
2023-04-06T21:29:17.482Z,13.04
2023-04-06T21:31:50.133Z,13.00
2023-04-06T21:34:22.939Z,12.98
2023-04-06T21:36:57.033Z,12.97
2023-04-06T21:39:29.816Z,12.96
2023-04-06T21:42:02.431Z,12.93
2023-04-06T21:44:35.168Z,12.93
2023-04-06T21:47:07.951Z,12.90
2023-04-06T21:49:40.789Z,12.89
2023-04-06T21:52:15.084Z,12.87
2023-04-06T21:54:47.901Z,12.85
2023-04-06T21:57:20.522Z,12.81
2023-04-06T21:59:53.224Z,12.80
2023-04-06T22:02:26.192Z,12.77
2023-04-06T22:04:59.166Z,12.77
2023-04-06T22:07:33.356Z,12.74
2023-04-06T22:10:06.384Z,12.72
2023-04-06T22:12:40.002Z,12.71
2023-04-06T22:15:13.496Z,12.69
2023-04-06T22:17:46.484Z,12.66
2023-04-06T22:20:19.223Z,12.64
2023-04-06T22:22:53.526Z,12.61
2023-04-06T22:25:26.370Z,12.60
2023-04-06T22:27:58.983Z,12.56
2023-04-06T22:30:31.873Z,12.56
2023-04-06T22:33:04.638Z,12.55
2023-04-06T22:35:37.450Z,12.53
2023-04-06T22:38:11.523Z,12.50
2023-04-06T22:40:44.257Z,12.50
2023-04-06T22:43:17.013Z,12.48
2023-04-06T22:45:49.687Z,12.46
2023-04-06T22:48:22.650Z,12.46
2023-04-06T22:50:55.756Z,12.45
2023-04-06T22:53:29.808Z,12.43
2023-04-06T22:56:02.516Z,12.41
2023-04-06T22:58:35.234Z,12.40
2023-04-06T23:01:08.026Z,12.39
2023-04-06T23:03:41.325Z,12.38
2023-04-06T23:06:14.410Z,12.36
2023-04-06T23:08:48.550Z,12.37
2023-04-06T23:11:21.426Z,12.35
2023-04-06T23:13:54.118Z,12.33
2023-04-06T23:16:27.597Z,12.32
2023-04-06T23:19:00.416Z,12.32
2023-04-06T23:21:33.437Z,12.30
2023-04-06T23:24:07.689Z,12.28
2023-04-06T23:26:40.528Z,12.27
2023-04-06T23:29:13.197Z,12.27
2023-04-06T23:31:45.997Z,12.25
2023-04-06T23:34:18.657Z,12.24
2023-04-06T23:36:51.356Z,12.24
2023-04-06T23:39:25.557Z,12.21
2023-04-06T23:41:58.936Z,12.22
2023-04-06T23:44:31.871Z,12.20
2023-04-06T23:47:04.647Z,12.18
2023-04-06T23:49:37.352Z,12.16
2023-04-06T23:52:10.121Z,12.16
2023-04-06T23:54:44.155Z,12.15
2023-04-06T23:57:16.933Z,12.14
2023-04-06T23:59:49.549Z,12.14
